Time;durP1;ratioP1;P1;durP2;ratioP2;P2;SDS_P1;SDS_P2;PMS_P1;PMS_P2;Temp;Humidity;BMP_temperature;BMP_pressure;BME280_temperature;BME280_humidity;BME280_pressure;Samples;Min_cycle;Max_cycle;Signal;HPM_P1;HPM_P2
2022/01/05 00:00:14;;;;;;;;;0.00;0.00;;;;;;;;4977581;28;45411;-59
2022/01/05 00:02:39;;;;;;;;;2.25;2.00;;;;;;;;4979987;28;45242;-59
2022/01/05 00:05:05;;;;;;;;;1.00;1.00;;;;;;;;4979247;28;45510;-59
2022/01/05 00:07:30;;;;;;;;;1.25;1.25;;;;;;;;4979981;28;45374;-59
2022/01/05 00:09:56;;;;;;;;;0.75;0.75;;;;;;;;4977929;28;46647;-59
2022/01/05 00:12:21;;;;;;;;;1.00;1.00;;;;;;;;4976276;28;45372;-59
2022/01/05 00:14:46;;;;;;;;;1.00;1.00;;;;;;;;4978096;28;45482;-59
2022/01/05 00:17:11;;;;;;;;;2.00;2.00;;;;;;;;4977350;28;45496;-59
2022/01/05 00:19:37;;;;;;;;;1.00;1.00;;;;;;;;4977670;28;45415;-59
2022/01/05 00:22:02;;;;;;;;;0.75;0.75;;;;;;;;4977717;28;45349;-59
2022/01/05 00:24:27;;;;;;;;;2.75;1.75;;;;;;;;4977424;28;45464;-59
2022/01/05 00:26:53;;;;;;;;;1.00;1.00;;;;;;;;4977722;28;45591;-59
2022/01/05 00:29:18;;;;;;;;;1.00;1.00;;;;;;;;4976550;28;46149;-59
2022/01/05 00:31:43;;;;;;;;;1.00;1.00;;;;;;;;4963786;28;45295;-59
2022/01/05 00:34:08;;;;;;;;;2.50;0.75;;;;;;;;4958015;28;45277;-59
2022/01/05 00:36:34;;;;;;;;;1.67;0.00;;;;;;;;4977712;28;45585;-59
2022/01/05 00:38:59;;;;;;;;;1.00;1.00;;;;;;;;4976052;28;45459;-59
2022/01/05 00:41:25;;;;;;;;;1.00;1.00;;;;;;;;4977642;28;45316;-59
2022/01/05 00:43:51;;;;;;;;;2.00;2.00;;;;;;;;4977736;28;45463;-59
2022/01/05 00:46:16;;;;;;;;;1.67;1.67;;;;;;;;4977584;28;45456;-59
2022/01/05 00:48:41;;;;;;;;;4.25;1.75;;;;;;;;4968625;28;45314;-59
2022/01/05 00:51:08;;;;;;;;;1.00;1.00;;;;;;;;4970786;28;45324;-59
2022/01/05 00:53:34;;;;;;;;;3.00;2.00;;;;;;;;4983345;28;45291;-59
2022/01/05 00:55:59;;;;;;;;;2.00;0.33;;;;;;;;4990775;28;45447;-59
2022/01/05 00:58:24;;;;;;;;;3.25;2.00;;;;;;;;4977213;28;46276;-59
2022/01/05 01:00:50;;;;;;;;;4.00;2.00;;;;;;;;4976826;28;45258;-60
2022/01/05 01:03:15;;;;;;;;;2.00;2.00;;;;;;;;4976906;28;45307;-59
2022/01/05 01:05:40;;;;;;;;;2.00;2.00;;;;;;;;4977398;28;45305;-59
2022/01/05 01:08:05;;;;;;;;;2.50;1.75;;;;;;;;4976945;28;45864;-59
2022/01/05 01:10:31;;;;;;;;;1.50;1.50;;;;;;;;4976879;28;45382;-59
2022/01/05 01:12:56;;;;;;;;;3.00;1.25;;;;;;;;4980323;28;45388;-59
2022/01/05 01:15:21;;;;;;;;;4.50;1.25;;;;;;;;4979174;28;45567;-59
2022/01/05 01:17:47;;;;;;;;;2.00;2.00;;;;;;;;4976534;28;46211;-59
2022/01/05 01:20:12;;;;;;;;;2.75;2.75;;;;;;;;4976365;28;45695;-59
2022/01/05 01:22:37;;;;;;;;;1.75;1.75;;;;;;;;4976714;28;45235;-59
2022/01/05 01:25:04;;;;;;;;;0.00;0.00;;;;;;;;4980577;28;45580;-59
2022/01/05 01:27:29;;;;;;;;;2.50;1.75;;;;;;;;4976214;28;45639;-59
2022/01/05 01:29:54;;;;;;;;;2.00;1.00;;;;;;;;4976105;28;45296;-59
2022/01/05 01:32:19;;;;;;;;;1.00;1.00;;;;;;;;4976736;28;45454;-59
2022/01/05 01:34:45;;;;;;;;;2.75;2.75;;;;;;;;4978932;28;45376;-59
2022/01/05 01:37:10;;;;;;;;;1.75;1.75;;;;;;;;4981570;28;45538;-59
2022/01/05 01:39:35;;;;;;;;;1.00;1.00;;;;;;;;4979407;28;45511;-59
2022/01/05 01:42:00;;;;;;;;;0.75;0.75;;;;;;;;4976469;28;45241;-59
2022/01/05 01:44:26;;;;;;;;;1.00;1.00;;;;;;;;4978870;28;45507;-59
2022/01/05 01:46:53;;;;;;;;;2.00;2.00;;;;;;;;4978039;28;46604;-59
2022/01/05 01:49:18;;;;;;;;;3.00;1.25;;;;;;;;4976522;28;45297;-59
2022/01/05 01:51:43;;;;;;;;;1.25;1.25;;;;;;;;4975937;28;45317;-59
2022/01/05 01:54:09;;;;;;;;;2.00;1.00;;;;;;;;4976765;28;45283;-59
2022/01/05 01:56:34;;;;;;;;;4.50;0.75;;;;;;;;4976089;28;46197;-59
2022/01/05 01:59:03;;;;;;;;;2.50;2.00;;;;;;;;4975675;28;45555;-59
2022/01/05 02:01:28;;;;;;;;;2.50;0.00;;;;;;;;4974335;28;45364;-59
2022/01/05 02:03:54;;;;;;;;;1.00;1.00;;;;;;;;4976464;28;45350;-59
2022/01/05 02:06:19;;;;;;;;;1.00;1.00;;;;;;;;4975824;28;45551;-60
2022/01/05 02:08:44;;;;;;;;;2.00;2.00;;;;;;;;4960035;28;45532;-59
2022/01/05 02:11:11;;;;;;;;;1.00;1.00;;;;;;;;4969481;28;45432;-59
2022/01/05 02:13:37;;;;;;;;;2.50;1.50;;;;;;;;4976312;28;45464;-59
2022/01/05 02:16:02;;;;;;;;;2.00;0.00;;;;;;;;4975627;28;45324;-59
2022/01/05 02:21:00;;;;;;;;;3.00;1.00;;;;;;;;4975999;28;45303;-59
2022/01/05 02:23:26;;;;;;;;;3.00;1.50;;;;;;;;4989588;28;45459;-59
2022/01/05 02:25:51;;;;;;;;;1.00;1.00;;;;;;;;4993961;28;46571;-59
2022/01/05 02:28:18;;;;;;;;;2.50;1.00;;;;;;;;4976140;28;45689;-59
2022/01/05 02:30:43;;;;;;;;;0.50;0.50;;;;;;;;4977404;28;45401;-59
2022/01/05 02:33:08;;;;;;;;;1.00;1.00;;;;;;;;4990364;28;45535;-59
2022/01/05 02:35:34;;;;;;;;;1.25;1.25;;;;;;;;4999101;28;46336;-59
2022/01/05 02:37:59;;;;;;;;;2.00;1.00;;;;;;;;4982806;28;45511;-59
2022/01/05 02:40:25;;;;;;;;;2.00;2.00;;;;;;;;4977849;28;45463;-59
2022/01/05 02:42:52;;;;;;;;;2.00;2.00;;;;;;;;4980509;28;45595;-60
2022/01/05 02:45:17;;;;;;;;;1.50;1.50;;;;;;;;4979451;28;45356;-59
2022/01/05 02:47:42;;;;;;;;;1.00;1.00;;;;;;;;4979201;28;45203;-59
2022/01/05 02:50:09;;;;;;;;;0.00;0.00;;;;;;;;4979077;28;45493;-59
2022/01/05 02:52:35;;;;;;;;;2.00;2.00;;;;;;;;4984433;28;45447;-59
2022/01/05 02:55:02;;;;;;;;;1.50;1.50;;;;;;;;4999043;28;46301;-59
2022/01/05 02:57:27;;;;;;;;;1.00;1.00;;;;;;;;4998616;28;45401;-59
2022/01/05 02:59:53;;;;;;;;;3.00;1.00;;;;;;;;4981247;28;45246;-59
2022/01/05 03:02:18;;;;;;;;;1.00;1.00;;;;;;;;4979616;28;45669;-59
2022/01/05 03:04:44;;;;;;;;;3.50;1.25;;;;;;;;4998839;28;45281;-59
2022/01/05 03:07:09;;;;;;;;;2.00;1.50;;;;;;;;4991258;28;45496;-59
2022/01/05 03:09:35;;;;;;;;;0.25;0.25;;;;;;;;4979154;28;45295;-59
2022/01/05 03:12:00;;;;;;;;;0.50;0.25;;;;;;;;4979403;28;45226;-59
2022/01/05 03:14:25;;;;;;;;;5.25;2.00;;;;;;;;4997768;28;45991;-59
2022/01/05 03:16:50;;;;;;;;;1.00;1.00;;;;;;;;4993645;28;45629;-59
2022/01/05 03:19:16;;;;;;;;;1.00;1.00;;;;;;;;4979092;28;45198;-59
2022/01/05 03:21:41;;;;;;;;;1.00;1.00;;;;;;;;4978761;28;45179;-59
2022/01/05 03:24:06;;;;;;;;;1.75;1.75;;;;;;;;4995447;28;45604;-60
2022/01/05 03:26:31;;;;;;;;;1.75;1.75;;;;;;;;4997433;28;45248;-59
2022/01/05 03:28:56;;;;;;;;;2.00;0.00;;;;;;;;4979072;28;45203;-59
2022/01/05 03:31:22;;;;;;;;;3.50;1.75;;;;;;;;4978955;28;45197;-59
2022/01/05 03:33:47;;;;;;;;;3.00;1.75;;;;;;;;4992940;28;45222;-59
2022/01/05 03:36:12;;;;;;;;;2.75;2.00;;;;;;;;4997803;28;45301;-59
2022/01/05 03:38:37;;;;;;;;;1.00;1.00;;;;;;;;4980478;28;45253;-59
2022/01/05 03:41:02;;;;;;;;;2.00;2.00;;;;;;;;4977167;28;45335;-59
2022/01/05 03:43:28;;;;;;;;;2.50;1.00;;;;;;;;4989841;28;45404;-59
2022/01/05 03:45:53;;;;;;;;;1.00;1.00;;;;;;;;4997637;28;45376;-59
2022/01/05 03:48:18;;;;;;;;;3.00;3.00;;;;;;;;4982734;28;45499;-59
2022/01/05 03:50:44;;;;;;;;;6.00;2.00;;;;;;;;4978123;28;45579;-59
2022/01/05 03:53:09;;;;;;;;;6.00;2.00;;;;;;;;4990405;28;45478;-59
2022/01/05 03:55:36;;;;;;;;;1.00;1.00;;;;;;;;4997971;28;45368;-59
2022/01/05 03:58:01;;;;;;;;;1.00;1.00;;;;;;;;4984920;28;45481;-60
2022/01/05 04:00:29;;;;;;;;;2.75;1.00;;;;;;;;4977936;28;45439;-59
2022/01/05 04:02:55;;;;;;;;;1.75;1.00;;;;;;;;4987645;28;46149;-59
2022/01/05 04:05:20;;;;;;;;;1.75;1.00;;;;;;;;4994510;28;45285;-59
2022/01/05 04:07:45;;;;;;;;;1.00;1.00;;;;;;;;4977987;28;45458;-59
2022/01/05 04:10:10;;;;;;;;;0.75;0.75;;;;;;;;4977624;28;45295;-59
2022/01/05 04:12:36;;;;;;;;;2.25;2.00;;;;;;;;4984802;28;45985;-59
2022/01/05 04:15:01;;;;;;;;;1.00;1.00;;;;;;;;4997195;28;45281;-59
2022/01/05 04:17:26;;;;;;;;;2.00;1.00;;;;;;;;4977698;28;45429;-59
2022/01/05 04:19:51;;;;;;;;;1.75;1.75;;;;;;;;4977074;28;45266;-59
2022/01/05 04:22:17;;;;;;;;;2.50;1.00;;;;;;;;4981666;28;45294;-59
2022/01/05 04:24:42;;;;;;;;;2.00;1.00;;;;;;;;4997427;28;45284;-59
2022/01/05 04:27:07;;;;;;;;;3.00;1.25;;;;;;;;4979989;28;45314;-59
2022/01/05 04:29:32;;;;;;;;;1.25;1.25;;;;;;;;4977755;28;45600;-59
2022/01/05 04:31:58;;;;;;;;;3.00;1.50;;;;;;;;4978938;28;46110;-63
2022/01/05 04:34:23;;;;;;;;;4.00;1.00;;;;;;;;4997282;28;45237;-59
2022/01/05 04:36:48;;;;;;;;;1.50;1.50;;;;;;;;4983055;28;45388;-60
2022/01/05 04:39:13;;;;;;;;;4.00;1.00;;;;;;;;4976101;28;45655;-59
2022/01/05 04:41:38;;;;;;;;;1.25;1.00;;;;;;;;4976821;28;46225;-59
2022/01/05 04:44:04;;;;;;;;;1.00;1.00;;;;;;;;4995939;28;45354;-59
2022/01/05 04:46:29;;;;;;;;;1.00;1.00;;;;;;;;4984967;28;45246;-59
2022/01/05 04:48:54;;;;;;;;;2.25;1.00;;;;;;;;4977319;28;45578;-59
2022/01/05 04:51:19;;;;;;;;;1.50;1.50;;;;;;;;4976729;28;46102;-59
2022/01/05 04:53:44;;;;;;;;;2.00;2.00;;;;;;;;4990828;28;45316;-59
2022/01/05 04:56:10;;;;;;;;;4.50;2.00;;;;;;;;4977362;28;45448;-59
2022/01/05 04:58:35;;;;;;;;;4.50;3.00;;;;;;;;4977106;28;45453;-59
2022/01/05 05:01:00;;;;;;;;;3.00;2.00;;;;;;;;4976980;28;45372;-59
2022/01/05 05:03:25;;;;;;;;;2.00;2.00;;;;;;;;4976613;28;45532;-59
2022/01/05 05:05:50;;;;;;;;;1.00;1.00;;;;;;;;4977121;28;45407;-59
2022/01/05 05:08:15;;;;;;;;;0.50;0.25;;;;;;;;4977122;28;45631;-59
2022/01/05 05:10:41;;;;;;;;;2.25;1.00;;;;;;;;4975502;28;47994;-59
2022/01/05 05:13:09;;;;;;;;;1.00;1.00;;;;;;;;4976912;28;45594;-59
2022/01/05 05:15:35;;;;;;;;;1.00;1.00;;;;;;;;4976685;28;45375;-59
2022/01/05 05:18:01;;;;;;;;;2.50;1.00;;;;;;;;4976843;28;45364;-59
2022/01/05 05:20:26;;;;;;;;;3.00;1.75;;;;;;;;4976374;28;45176;-58
2022/01/05 05:22:51;;;;;;;;;1.00;1.00;;;;;;;;4977072;28;45386;-59
2022/01/05 05:25:17;;;;;;;;;1.00;1.00;;;;;;;;4976353;28;45250;-59
2022/01/05 05:27:42;;;;;;;;;1.00;1.00;;;;;;;;4976842;28;45287;-59
2022/01/05 05:30:07;;;;;;;;;1.00;1.00;;;;;;;;4976725;28;45529;-59
2022/01/05 05:32:33;;;;;;;;;1.75;1.00;;;;;;;;4976856;28;45448;-59
2022/01/05 05:34:58;;;;;;;;;0.00;0.00;;;;;;;;4976714;28;45285;-59
2022/01/05 05:37:23;;;;;;;;;3.00;1.75;;;;;;;;4984168;28;45540;-59
2022/01/05 05:39:48;;;;;;;;;2.00;1.00;;;;;;;;4995985;28;45966;-59
2022/01/05 05:42:14;;;;;;;;;1.50;1.50;;;;;;;;4988179;28;45669;-59
2022/01/05 05:44:39;;;;;;;;;3.00;1.50;;;;;;;;4976452;28;45236;-59
2022/01/05 05:47:05;;;;;;;;;1.75;1.00;;;;;;;;4980777;28;45273;-59
2022/01/05 05:49:31;;;;;;;;;6.50;2.25;;;;;;;;4995909;28;45297;-59
2022/01/05 05:51:56;;;;;;;;;1.00;1.00;;;;;;;;4993610;28;45439;-59
2022/01/05 05:54:21;;;;;;;;;2.00;2.00;;;;;;;;4976714;28;45313;-59
2022/01/05 05:56:46;;;;;;;;;2.50;1.00;;;;;;;;4974343;28;45577;-59
2022/01/05 05:59:12;;;;;;;;;1.25;1.00;;;;;;;;4975672;28;46275;-58
2022/01/05 06:01:37;;;;;;;;;2.00;2.00;;;;;;;;4975627;28;45461;-59
2022/01/05 06:04:02;;;;;;;;;1.50;1.00;;;;;;;;4978213;28;45294;-58
2022/01/05 06:06:28;;;;;;;;;1.00;1.00;;;;;;;;4980074;28;45627;-58
2022/01/05 06:08:53;;;;;;;;;2.25;1.00;;;;;;;;4980819;28;46041;-58
2022/01/05 06:11:18;;;;;;;;;1.00;1.00;;;;;;;;4989182;28;45442;-59
2022/01/05 06:13:44;;;;;;;;;2.00;2.00;;;;;;;;4997421;28;45400;-58
2022/01/05 06:16:09;;;;;;;;;2.00;2.00;;;;;;;;4994196;28;45510;-59
2022/01/05 06:18:34;;;;;;;;;1.00;1.00;;;;;;;;4990468;28;46212;-58
2022/01/05 06:20:59;;;;;;;;;1.75;1.75;;;;;;;;4993703;28;45515;-59
2022/01/05 06:23:24;;;;;;;;;2.00;0.00;;;;;;;;4989395;28;45412;-59
2022/01/05 06:25:50;;;;;;;;;2.00;1.00;;;;;;;;4979510;28;45369;-59
2022/01/05 06:28:15;;;;;;;;;2.00;1.00;;;;;;;;4979082;28;45813;-59
2022/01/05 06:30:40;;;;;;;;;1.75;1.50;;;;;;;;4979352;28;45480;-59
2022/01/05 06:33:06;;;;;;;;;2.50;1.00;;;;;;;;4980007;28;45301;-60
2022/01/05 06:35:31;;;;;;;;;2.00;1.75;;;;;;;;4979318;28;45363;-59
2022/01/05 06:37:57;;;;;;;;;3.50;1.00;;;;;;;;4994055;28;46131;-58
2022/01/05 06:40:22;;;;;;;;;1.25;1.00;;;;;;;;4989060;28;45452;-59
2022/01/05 06:42:47;;;;;;;;;3.00;2.00;;;;;;;;4982487;28;45523;-59
2022/01/05 06:45:13;;;;;;;;;3.00;1.00;;;;;;;;4978867;28;45588;-59
2022/01/05 06:47:38;;;;;;;;;1.00;1.00;;;;;;;;4979081;28;45264;-60
2022/01/05 06:50:04;;;;;;;;;2.00;2.00;;;;;;;;4983403;28;45471;-58
2022/01/05 06:52:29;;;;;;;;;2.50;1.00;;;;;;;;4998993;28;45337;-58
2022/01/05 06:54:54;;;;;;;;;5.00;5.00;;;;;;;;4998295;28;45603;-59
2022/01/05 06:57:19;;;;;;;;;2.50;2.50;;;;;;;;4980686;28;46225;-59
2022/01/05 06:59:45;;;;;;;;;1.50;1.50;;;;;;;;4979309;28;45504;-59
2022/01/05 07:02:10;;;;;;;;;2.00;1.25;;;;;;;;4985162;28;45495;-59
2022/01/05 07:04:35;;;;;;;;;0.00;0.00;;;;;;;;4995519;28;45613;-59
2022/01/05 07:07:00;;;;;;;;;2.00;1.00;;;;;;;;4990543;28;46588;-59
2022/01/05 07:09:25;;;;;;;;;0.75;0.75;;;;;;;;4997026;28;45495;-59
2022/01/05 07:11:51;;;;;;;;;1.00;1.00;;;;;;;;4977337;28;45431;-58
2022/01/05 07:14:16;;;;;;;;;1.00;1.00;;;;;;;;4978577;28;45392;-58
2022/01/05 07:16:41;;;;;;;;;2.75;2.00;;;;;;;;4980502;28;46382;-58
2022/01/05 07:19:06;;;;;;;;;2.50;1.75;;;;;;;;4982773;28;45459;-58
2022/01/05 07:21:33;;;;;;;;;9.25;3.50;;;;;;;;4983783;28;45542;-58
2022/01/05 07:23:59;;;;;;;;;2.75;2.75;;;;;;;;4985646;28;45748;-57
2022/01/05 07:26:24;;;;;;;;;5.25;2.75;;;;;;;;4976933;28;45508;-57
2022/01/05 07:28:49;;;;;;;;;2.00;2.00;;;;;;;;4986090;28;45488;-57
2022/01/05 07:31:14;;;;;;;;;3.00;3.00;;;;;;;;4985765;28;45336;-53
2022/01/05 07:33:40;;;;;;;;;7.00;5.00;;;;;;;;4986789;28;45301;-59
2022/01/05 07:36:05;;;;;;;;;6.50;2.75;;;;;;;;4977231;28;45330;-56
2022/01/05 07:38:30;;;;;;;;;6.50;5.75;;;;;;;;4977217;28;45430;-55
2022/01/05 07:40:55;;;;;;;;;6.50;5.25;;;;;;;;4978269;28;45348;-53
2022/01/05 07:43:22;;;;;;;;;8.75;6.75;;;;;;;;4978326;28;45531;-57
2022/01/05 07:45:48;;;;;;;;;16.75;9.25;;;;;;;;4978157;28;46394;-55
2022/01/05 07:48:13;;;;;;;;;6.75;2.75;;;;;;;;4976704;28;45264;-57
2022/01/05 07:50:38;;;;;;;;;8.00;4.50;;;;;;;;4977740;28;45432;-55
2022/01/05 07:53:04;;;;;;;;;5.00;5.00;;;;;;;;4978536;28;45250;-55
2022/01/05 07:55:30;;;;;;;;;3.50;3.25;;;;;;;;4978345;28;46231;-58
2022/01/05 07:57:55;;;;;;;;;3.75;2.00;;;;;;;;4978147;28;45411;-54
2022/01/05 08:00:21;;;;;;;;;3.50;3.00;;;;;;;;4977606;28;45761;-57
2022/01/05 08:02:46;;;;;;;;;11.50;7.50;;;;;;;;4978313;28;45278;-54
2022/01/05 08:05:11;;;;;;;;;11.25;6.50;;;;;;;;4977877;28;45381;-54
2022/01/05 08:07:37;;;;;;;;;3.00;2.00;;;;;;;;4978163;28;45412;-56
2022/01/05 08:10:02;;;;;;;;;2.00;2.00;;;;;;;;4977890;28;45238;-56
2022/01/05 08:12:27;;;;;;;;;7.75;2.00;;;;;;;;4977684;28;45318;-57
2022/01/05 08:14:53;;;;;;;;;6.00;5.00;;;;;;;;4977828;28;45364;-54
2022/01/05 08:17:18;;;;;;;;;3.25;3.25;;;;;;;;4977967;28;45321;-54
2022/01/05 08:19:44;;;;;;;;;12.25;6.25;;;;;;;;4977703;28;45605;-56
2022/01/05 08:22:09;;;;;;;;;6.25;3.00;;;;;;;;4977180;28;45512;-57
2022/01/05 08:24:34;;;;;;;;;4.00;4.00;;;;;;;;4977627;28;45337;-57
2022/01/05 08:27:00;;;;;;;;;8.50;5.75;;;;;;;;4976946;28;45435;-57
2022/01/05 08:29:25;;;;;;;;;9.75;6.00;;;;;;;;4977959;28;45396;-56
2022/01/05 08:31:50;;;;;;;;;3.75;2.00;;;;;;;;4977649;28;45469;-58
2022/01/05 08:34:15;;;;;;;;;5.00;4.50;;;;;;;;4977034;28;45456;-56
2022/01/05 08:36:40;;;;;;;;;3.00;2.50;;;;;;;;4977622;28;45452;-56
2022/01/05 08:39:06;;;;;;;;;7.00;5.75;;;;;;;;4977805;28;45404;-54
2022/01/05 08:41:31;;;;;;;;;4.50;4.50;;;;;;;;4977541;28;45357;-57
2022/01/05 08:43:56;;;;;;;;;5.25;4.75;;;;;;;;4977082;28;45258;-54
2022/01/05 08:46:22;;;;;;;;;14.25;8.50;;;;;;;;4977534;28;45362;-56
2022/01/05 08:48:47;;;;;;;;;3.00;3.00;;;;;;;;4977477;28;45286;-58
2022/01/05 08:51:12;;;;;;;;;3.00;3.00;;;;;;;;4976155;28;45470;-55
2022/01/05 08:53:37;;;;;;;;;9.75;6.50;;;;;;;;4977207;28;45400;-58
2022/01/05 08:56:03;;;;;;;;;9.50;8.75;;;;;;;;4976926;28;45210;-58
2022/01/05 08:58:28;;;;;;;;;6.25;5.25;;;;;;;;4977386;28;45941;-56
2022/01/05 09:00:53;;;;;;;;;9.50;3.00;;;;;;;;4977468;28;45228;-55
2022/01/05 09:03:19;;;;;;;;;13.75;6.00;;;;;;;;4977215;28;46472;-54
2022/01/05 09:05:44;;;;;;;;;9.75;5.50;;;;;;;;4976608;28;45449;-57
2022/01/05 09:08:09;;;;;;;;;3.50;2.25;;;;;;;;4977312;28;45310;-56
2022/01/05 09:10:35;;;;;;;;;5.50;3.00;;;;;;;;4977307;28;45213;-57
2022/01/05 09:13:00;;;;;;;;;11.75;7.25;;;;;;;;4977252;28;45261;-56
2022/01/05 09:15:26;;;;;;;;;6.00;3.00;;;;;;;;4977107;28;45339;-56
2022/01/05 09:17:51;;;;;;;;;6.25;2.75;;;;;;;;4976979;28;45275;-58
2022/01/05 09:20:17;;;;;;;;;5.00;5.00;;;;;;;;4976715;28;45416;-58
2022/01/05 09:22:42;;;;;;;;;7.00;2.00;;;;;;;;4977175;28;46104;-58
2022/01/05 09:25:09;;;;;;;;;7.00;3.25;;;;;;;;4976861;28;45254;-57
2022/01/05 09:27:35;;;;;;;;;6.50;4.00;;;;;;;;4976497;28;45283;-57
2022/01/05 09:30:01;;;;;;;;;6.25;3.50;;;;;;;;4975645;28;45468;-57
2022/01/05 09:32:26;;;;;;;;;6.25;5.25;;;;;;;;4976829;28;45861;-56
2022/01/05 09:34:51;;;;;;;;;7.00;5.00;;;;;;;;4976786;28;45242;-58
2022/01/05 09:37:27;;;;;;;;;9.00;5.00;;;;;;;;4976915;28;45247;-57
2022/01/05 09:42:37;;;;;;;;;8.50;5.50;;;;;;;;4976391;28;45344;-55
2022/01/05 09:45:18;;;;;;;;;2.75;2.75;;;;;;;;4976455;28;45308;-58
2022/01/05 09:47:44;;;;;;;;;2.25;2.25;;;;;;;;4976787;28;45328;-57
2022/01/05 09:50:10;;;;;;;;;6.00;4.00;;;;;;;;4976094;28;45268;-57
2022/01/05 09:52:37;;;;;;;;;3.00;3.00;;;;;;;;4975408;28;48557;-57
2022/01/05 09:55:04;;;;;;;;;5.50;3.50;;;;;;;;4976453;28;45384;-57
2022/01/05 09:57:29;;;;;;;;;2.25;2.25;;;;;;;;4976526;28;45250;-58
2022/01/05 09:59:56;;;;;;;;;5.50;3.00;;;;;;;;4976321;28;45288;-56
2022/01/05 10:02:22;;;;;;;;;5.00;2.75;;;;;;;;4975924;28;46248;-55
2022/01/05 10:04:47;;;;;;;;;6.00;3.00;;;;;;;;4976239;28;45333;-58
2022/01/05 10:07:13;;;;;;;;;4.50;4.50;;;;;;;;4976557;28;45309;-56
2022/01/05 10:09:38;;;;;;;;;3.00;2.00;;;;;;;;4976445;28;45313;-58
2022/01/05 10:12:04;;;;;;;;;5.00;3.00;;;;;;;;4975673;28;46198;-57
2022/01/05 10:14:30;;;;;;;;;5.75;5.00;;;;;;;;4975861;28;45453;-57
2022/01/05 10:17:03;;;;;;;;;11.00;10.00;;;;;;;;4976128;28;45849;-56
2022/01/05 10:19:28;;;;;;;;;8.50;4.00;;;;;;;;4975865;28;45305;-56
2022/01/05 10:21:53;;;;;;;;;3.50;2.75;;;;;;;;4975607;28;45368;-56
2022/01/05 10:24:38;;;;;;;;;6.50;5.50;;;;;;;;4975683;28;45282;-56
2022/01/05 10:27:04;;;;;;;;;3.50;3.50;;;;;;;;4974884;28;45395;-57
2022/01/05 10:29:29;;;;;;;;;10.00;5.25;;;;;;;;4975942;28;45639;-57
2022/01/05 10:31:55;;;;;;;;;9.50;5.50;;;;;;;;4975760;28;45289;-58
2022/01/05 10:34:25;;;;;;;;;7.50;6.25;;;;;;;;4974994;28;45441;-53
2022/01/05 10:36:51;;;;;;;;;7.00;2.75;;;;;;;;4975884;28;45382;-57
2022/01/05 10:39:27;;;;;;;;;3.50;3.50;;;;;;;;4975914;28;45350;-59
2022/01/05 10:41:52;;;;;;;;;5.50;2.00;;;;;;;;4975831;28;45416;-58
2022/01/05 10:44:17;;;;;;;;;5.25;2.00;;;;;;;;4975176;28;45470;-57
2022/01/05 10:46:47;;;;;;;;;2.00;2.00;;;;;;;;4974268;28;45331;-55
2022/01/05 10:49:23;;;;;;;;;5.75;3.00;;;;;;;;4976361;28;45530;-55
2022/01/05 10:51:48;;;;;;;;;6.25;6.25;;;;;;;;4978826;28;46052;-57
2022/01/05 10:54:15;;;;;;;;;6.00;6.00;;;;;;;;4978844;28;45246;-58
2022/01/05 10:56:40;;;;;;;;;10.00;7.00;;;;;;;;4978380;28;45391;-58
2022/01/05 10:59:06;;;;;;;;;12.00;8.25;;;;;;;;4978961;28;45400;-58
2022/01/05 11:01:31;;;;;;;;;7.00;5.25;;;;;;;;4978667;28;45967;-55
2022/01/05 11:03:57;;;;;;;;;5.75;5.00;;;;;;;;4978804;28;45429;-57
2022/01/05 11:06:22;;;;;;;;;7.25;7.00;;;;;;;;4984655;28;45468;-56
2022/01/05 11:08:47;;;;;;;;;2.00;2.00;;;;;;;;4998628;28;45435;-58
2022/01/05 11:11:35;;;;;;;;;2.75;1.25;;;;;;;;4998117;28;45435;-57
2022/01/05 11:14:00;;;;;;;;;4.00;3.00;;;;;;;;4998398;28;45285;-58
2022/01/05 11:16:26;;;;;;;;;2.75;2.75;;;;;;;;4998585;28;45420;-57
2022/01/05 11:19:10;;;;;;;;;5.50;3.00;;;;;;;;4998110;28;45191;-55
2022/01/05 11:21:37;;;;;;;;;3.75;2.00;;;;;;;;4997991;28;46629;-58
2022/01/05 11:24:03;;;;;;;;;4.50;3.00;;;;;;;;4998243;28;45262;-56
2022/01/05 11:26:28;;;;;;;;;3.75;2.25;;;;;;;;4998520;28;45261;-57
2022/01/05 11:28:54;;;;;;;;;4.50;4.50;;;;;;;;4998288;28;45279;-57
2022/01/05 11:31:19;;;;;;;;;2.00;2.00;;;;;;;;4998245;28;45376;-58
2022/01/05 11:33:45;;;;;;;;;3.00;3.00;;;;;;;;4998168;28;45364;-57
2022/01/05 11:36:10;;;;;;;;;2.00;2.00;;;;;;;;4998325;28;45872;-57
2022/01/05 11:38:35;;;;;;;;;2.75;2.00;;;;;;;;4998274;28;45404;-58
2022/01/05 11:41:02;;;;;;;;;6.00;2.00;;;;;;;;4997446;28;46525;-57
2022/01/05 11:43:32;;;;;;;;;1.00;1.00;;;;;;;;4998172;28;45530;-57
2022/01/05 11:45:57;;;;;;;;;1.50;1.50;;;;;;;;4998455;28;45285;-59
2022/01/05 11:48:23;;;;;;;;;4.00;2.00;;;;;;;;4997962;28;45263;-57
2022/01/05 11:50:53;;;;;;;;;2.00;2.00;;;;;;;;4992018;28;47049;-59
2022/01/05 11:53:51;;;;;;;;;3.00;2.75;;;;;;;;4983186;28;45478;-59
2022/01/05 11:56:17;;;;;;;;;4.50;3.00;;;;;;;;4941590;28;45641;-57
2022/01/05 11:59:03;;;;;;;;;2.00;2.00;;;;;;;;4978386;28;45218;-61
2022/01/05 12:01:33;;;;;;;;;10.25;9.00;;;;;;;;4976097;28;46051;-57
2022/01/05 12:04:01;;;;;;;;;2.00;2.00;;;;;;;;4996518;28;45303;-56
2022/01/05 12:06:31;;;;;;;;;3.00;3.00;;;;;;;;4980646;28;45346;-57
2022/01/05 12:08:57;;;;;;;;;4.50;4.50;;;;;;;;4978329;28;45557;-58
2022/01/05 12:11:33;;;;;;;;;4.25;3.00;;;;;;;;4976580;28;47199;-54
2022/01/05 12:13:59;;;;;;;;;3.50;3.50;;;;;;;;4978897;28;45309;-54
2022/01/05 12:16:25;;;;;;;;;4.00;4.00;;;;;;;;4981456;28;45595;-57
2022/01/05 12:19:04;;;;;;;;;3.00;3.00;;;;;;;;4979967;28;45462;-59
2022/01/05 12:21:46;;;;;;;;;3.00;3.00;;;;;;;;4977425;28;45271;-58
2022/01/05 12:24:11;;;;;;;;;3.00;2.00;;;;;;;;4976693;28;45199;-56
2022/01/05 12:26:37;;;;;;;;;5.00;3.00;;;;;;;;4977486;28;45275;-55
2022/01/05 12:29:02;;;;;;;;;1.00;1.00;;;;;;;;4977794;28;45227;-55
2022/01/05 12:31:46;;;;;;;;;1.50;1.50;;;;;;;;4977489;28;46081;-55
2022/01/05 12:34:11;;;;;;;;;6.00;6.00;;;;;;;;4976870;28;45213;-57
2022/01/05 12:36:38;;;;;;;;;4.50;2.50;;;;;;;;4977441;28;45386;-56
2022/01/05 12:39:04;;;;;;;;;5.75;2.75;;;;;;;;4977551;28;45254;-55
2022/01/05 12:41:36;;;;;;;;;7.75;7.00;;;;;;;;4977039;28;45374;-54
2022/01/05 12:44:11;;;;;;;;;5.75;3.00;;;;;;;;4975942;28;45402;-57
2022/01/05 12:46:36;;;;;;;;;2.00;2.00;;;;;;;;4980750;28;45523;-57
2022/01/05 12:49:04;;;;;;;;;2.00;2.00;;;;;;;;4980830;28;45571;-56
2022/01/05 12:51:33;;;;;;;;;3.00;2.25;;;;;;;;4977354;28;45337;-54
2022/01/05 12:54:06;;;;;;;;;1.50;1.50;;;;;;;;4983305;28;45475;-54
2022/01/05 12:56:36;;;;;;;;;2.75;1.75;;;;;;;;4995203;28;45337;-52
2022/01/05 12:59:02;;;;;;;;;4.00;2.50;;;;;;;;4996711;28;45418;-57
2022/01/05 13:01:29;;;;;;;;;1.00;1.00;;;;;;;;4995685;28;45736;-56
2022/01/05 13:03:55;;;;;;;;;7.00;3.00;;;;;;;;4996594;28;45412;-55
2022/01/05 13:06:21;;;;;;;;;3.00;2.00;;;;;;;;4996973;28;45281;-56
2022/01/05 13:08:49;;;;;;;;;3.25;2.75;;;;;;;;4996335;28;45364;-53
2022/01/05 13:11:30;;;;;;;;;3.75;2.50;;;;;;;;4996562;28;45403;-56
2022/01/05 13:14:08;;;;;;;;;2.67;2.00;;;;;;;;4994463;28;45381;-56
2022/01/05 13:16:33;;;;;;;;;5.00;2.67;;;;;;;;4996824;28;45300;-53
2022/01/05 13:18:59;;;;;;;;;9.00;2.75;;;;;;;;4996081;28;45437;-57
2022/01/05 13:21:25;;;;;;;;;2.75;2.00;;;;;;;;4996299;28;46152;-56
2022/01/05 13:23:56;;;;;;;;;4.25;3.00;;;;;;;;4996386;28;45427;-55
2022/01/05 13:26:21;;;;;;;;;6.00;2.00;;;;;;;;4995459;28;45380;-55
2022/01/05 13:28:51;;;;;;;;;2.00;2.00;;;;;;;;4996572;28;45332;-55
2022/01/05 13:31:16;;;;;;;;;6.25;4.00;;;;;;;;4996257;28;45284;-55
2022/01/05 13:33:41;;;;;;;;;1.50;1.00;;;;;;;;4995269;28;45278;-53
2022/01/05 13:36:06;;;;;;;;;4.25;2.00;;;;;;;;4996419;28;45227;-53
2022/01/05 13:38:32;;;;;;;;;3.50;2.25;;;;;;;;4994883;28;45545;-55
2022/01/05 13:40:59;;;;;;;;;6.00;4.00;;;;;;;;4995707;28;46656;-56
2022/01/05 13:43:26;;;;;;;;;4.25;2.00;;;;;;;;4996340;28;45395;-55
2022/01/05 13:45:53;;;;;;;;;7.00;3.75;;;;;;;;4996387;28;45278;-54
2022/01/05 13:48:18;;;;;;;;;4.25;3.50;;;;;;;;4996457;28;45431;-53
2022/01/05 13:50:54;;;;;;;;;2.75;2.75;;;;;;;;4996383;28;46028;-55
2022/01/05 13:53:23;;;;;;;;;2.00;2.00;;;;;;;;4995895;28;45332;-53
2022/01/05 13:55:49;;;;;;;;;2.00;2.00;;;;;;;;4996248;28;45218;-52
2022/01/05 13:58:19;;;;;;;;;2.00;2.00;;;;;;;;4996167;28;45645;-56
2022/01/05 14:01:03;;;;;;;;;3.25;3.00;;;;;;;;4995774;28;45732;-55
2022/01/05 14:03:36;;;;;;;;;7.00;5.33;;;;;;;;4995234;28;45522;-55
2022/01/05 14:06:03;;;;;;;;;9.75;6.25;;;;;;;;4994050;28;45421;-57
2022/01/05 14:08:30;;;;;;;;;7.25;3.00;;;;;;;;4995878;28;45562;-54
2022/01/05 14:11:02;;;;;;;;;3.75;3.00;;;;;;;;4995934;28;45266;-56
2022/01/05 14:13:27;;;;;;;;;7.25;3.50;;;;;;;;4995365;28;45419;-56
2022/01/05 14:15:56;;;;;;;;;2.00;1.25;;;;;;;;4996064;28;45328;-57
2022/01/05 14:18:22;;;;;;;;;6.00;2.25;;;;;;;;4995996;28;45297;-56
2022/01/05 14:20:48;;;;;;;;;4.00;3.00;;;;;;;;4995358;28;45507;-55
2022/01/05 14:23:17;;;;;;;;;3.75;3.75;;;;;;;;4995824;28;45211;-56
2022/01/05 14:25:51;;;;;;;;;7.00;5.50;;;;;;;;4997803;28;45317;-55
2022/01/05 14:28:21;;;;;;;;;6.00;4.25;;;;;;;;4997389;28;45572;-55
2022/01/05 14:30:50;;;;;;;;;4.25;3.75;;;;;;;;4998840;28;46128;-55
2022/01/05 14:33:34;;;;;;;;;6.00;4.25;;;;;;;;4998989;28;45259;-55
2022/01/05 14:36:00;;;;;;;;;10.25;5.00;;;;;;;;4998557;28;45283;-55
2022/01/05 14:38:26;;;;;;;;;9.50;4.75;;;;;;;;4999055;28;45498;-57
2022/01/05 14:40:51;;;;;;;;;3.00;3.00;;;;;;;;4998916;28;45986;-56
2022/01/05 14:43:18;;;;;;;;;5.00;2.00;;;;;;;;4998836;28;45424;-58